createdAt,value
2023-04-13T00:03:48.964Z,1.08
2023-04-13T00:08:51.291Z,0.60
2023-04-13T00:13:55.611Z,2.65
2023-04-13T00:19:02.034Z,1.50
2023-04-13T00:24:11.598Z,0.50
2023-04-13T00:29:14.642Z,0.68
2023-04-13T00:34:16.557Z,1.83
2023-04-13T00:39:26.945Z,0.63
2023-04-13T00:44:33.472Z,1.55
2023-04-13T00:49:36.706Z,2.00
2023-04-13T00:54:39.020Z,0.85
2023-04-13T00:59:43.815Z,1.02
2023-04-13T01:04:50.370Z,1.48
2023-04-13T01:10:33.044Z,0.90
2023-04-13T01:15:41.403Z,0.75
2023-04-13T01:20:44.977Z,1.83
2023-04-13T01:26:03.436Z,1.23
2023-04-13T01:31:05.777Z,1.43
2023-04-13T01:36:12.406Z,1.40
2023-04-13T01:41:14.044Z,2.85
2023-04-13T01:46:15.963Z,1.70
2023-04-13T01:51:19.529Z,1.08
2023-04-13T01:56:22.030Z,1.52
2023-04-13T02:01:41.327Z,1.08
2023-04-13T02:11:48.235Z,1.85
2023-04-13T02:16:50.406Z,1.23
2023-04-13T02:22:13.423Z,3.38
2023-04-13T02:27:15.004Z,1.90
2023-04-13T02:32:16.692Z,4.85
2023-04-13T02:37:21.194Z,2.45
2023-04-13T02:42:33.853Z,2.80
2023-04-13T02:48:10.144Z,2.65
2023-04-13T02:53:18.127Z,4.72
2023-04-13T02:58:25.080Z,3.75
2023-04-13T03:03:38.827Z,2.35
2023-04-13T03:08:41.231Z,2.05
2023-04-13T03:13:48.240Z,2.17
2023-04-13T03:18:50.101Z,4.07
2023-04-13T03:23:55.094Z,2.40
2023-04-13T03:29:05.528Z,2.00
2023-04-13T03:34:07.342Z,2.03
2023-04-13T03:39:09.245Z,5.60
2023-04-13T03:44:12.049Z,4.85
2023-04-13T03:49:19.762Z,2.72
2023-04-13T03:54:21.548Z,5.05
2023-04-13T03:59:33.887Z,5.00
2023-04-13T04:04:40.140Z,3.08
2023-04-13T04:09:46.550Z,2.83
2023-04-13T04:14:56.838Z,2.60
2023-04-13T04:20:02.826Z,5.85
2023-04-13T04:25:14.139Z,3.47
2023-04-13T04:30:17.417Z,4.53
2023-04-13T04:35:19.841Z,4.30
2023-04-13T04:40:24.343Z,6.45
2023-04-13T04:45:26.392Z,2.42
2023-04-13T05:02:24.806Z,6.63
2023-04-13T05:07:29.694Z,2.30
2023-04-13T05:12:31.449Z,5.40
2023-04-13T05:17:34.301Z,4.57
2023-04-13T05:22:36.137Z,5.00
2023-04-13T05:27:40.859Z,4.82
2023-04-13T05:32:42.519Z,4.20
2023-04-13T05:37:46.888Z,4.57
2023-04-13T05:42:50.122Z,3.90
2023-04-13T05:47:51.935Z,3.60
2023-04-13T05:52:53.780Z,6.15
2023-04-13T05:57:55.527Z,5.50
2023-04-13T06:02:58.238Z,3.63
2023-04-13T06:08:04.674Z,4.78
2023-04-13T06:13:06.526Z,6.93
2023-04-13T06:18:14.006Z,4.97
2023-04-13T06:23:19.681Z,3.30
2023-04-13T06:28:24.284Z,3.05
2023-04-13T06:33:27.136Z,2.47
2023-04-13T06:38:29.819Z,2.88
2023-04-13T06:43:34.241Z,2.50
2023-04-13T06:48:40.765Z,5.00
2023-04-13T06:53:49.071Z,3.28
2023-04-13T06:58:55.460Z,2.47
2023-04-13T09:22:23.850Z,2.42
2023-04-13T09:27:50.077Z,2.75
2023-04-13T09:44:44.677Z,1.95
2023-04-13T09:49:55.979Z,2.90
2023-04-13T10:01:12.581Z,2.53
2023-04-13T10:06:46.752Z,4.20
2023-04-13T10:12:13.048Z,2.45
2023-04-13T10:18:05.506Z,3.58
2023-04-13T10:23:26.514Z,2.95
2023-04-13T10:40:58.727Z,3.65
2023-04-13T10:46:41.307Z,2.25
2023-04-13T11:09:42.692Z,2.65
2023-04-13T11:34:45.342Z,2.90
2023-04-13T11:39:57.509Z,2.03
2023-04-13T11:45:12.332Z,4.75
2023-04-13T11:50:23.225Z,3.55
2023-04-13T11:55:42.468Z,4.05
2023-04-13T12:18:14.361Z,3.00
2023-04-13T12:23:24.412Z,1.23
2023-04-13T12:28:32.216Z,2.88
2023-04-13T12:33:37.482Z,1.40
2023-04-13T12:38:43.090Z,1.85
2023-04-13T12:43:44.989Z,3.50
2023-04-13T12:48:48.151Z,1.58
2023-04-13T12:53:49.821Z,3.25
2023-04-13T12:58:54.529Z,2.28
2023-04-13T13:03:56.187Z,1.35
2023-04-13T13:08:58.272Z,2.22
2023-04-13T13:14:00.163Z,1.88
2023-04-13T13:19:06.288Z,2.70
2023-04-13T13:24:08.403Z,1.88
2023-04-13T13:29:11.685Z,1.90
2023-04-13T13:34:16.379Z,2.20
2023-04-13T13:39:18.635Z,2.05
2023-04-13T13:44:21.688Z,1.60
2023-04-13T13:49:26.188Z,2.50
2023-04-13T13:54:29.991Z,3.45
2023-04-13T13:59:32.972Z,2.70
2023-04-13T14:04:34.981Z,3.00
2023-04-13T14:09:36.751Z,2.05
2023-04-13T14:14:38.395Z,2.75
2023-04-13T14:19:47.912Z,2.15
2023-04-13T14:24:53.233Z,2.78
2023-04-13T14:29:57.192Z,4.10
2023-04-13T14:35:15.272Z,1.92
2023-04-13T14:40:17.237Z,2.17
2023-04-13T14:45:24.896Z,2.95
2023-04-13T14:55:55.255Z,5.07
2023-04-13T15:00:57.075Z,2.33
2023-04-13T15:06:05.522Z,3.25
2023-04-13T15:11:16.032Z,3.42
2023-04-13T15:16:20.483Z,2.05
2023-04-13T15:21:22.201Z,4.10
2023-04-13T15:26:25.429Z,1.80
2023-04-13T15:31:29.406Z,3.22
2023-04-13T15:36:31.274Z,2.70
2023-04-13T15:41:33.380Z,2.92
2023-04-13T15:46:35.915Z,2.50
2023-04-13T15:51:40.006Z,4.72
2023-04-13T15:56:46.855Z,3.45
2023-04-13T16:01:59.233Z,2.75
2023-04-13T16:07:12.914Z,2.03
2023-04-13T16:12:29.856Z,3.88
2023-04-13T16:17:33.033Z,2.83
2023-04-13T16:22:36.360Z,4.40
2023-04-13T16:27:45.418Z,3.38
2023-04-13T16:32:51.340Z,2.55
2023-04-13T16:37:53.214Z,1.90
2023-04-13T16:42:55.436Z,3.10
2023-04-13T16:48:01.442Z,1.98
2023-04-13T16:53:05.971Z,4.30
2023-04-13T16:58:15.764Z,6.38
2023-04-13T17:03:21.881Z,4.00
2023-04-13T17:08:23.974Z,4.50
2023-04-13T17:13:28.731Z,6.05
2023-04-13T17:18:30.556Z,3.58
2023-04-13T17:23:34.931Z,7.20
2023-04-13T17:28:36.767Z,9.65
2023-04-13T17:33:38.475Z,24.35
2023-04-13T17:38:40.508Z,18.13
2023-04-13T17:43:42.297Z,22.65
2023-04-13T17:54:30.806Z,26.25
2023-04-13T17:59:33.005Z,26.05
2023-04-13T18:04:40.828Z,23.95
2023-04-13T18:09:46.037Z,27.65
2023-04-13T18:14:50.538Z,26.90
2023-04-13T18:19:52.982Z,23.23
2023-04-13T18:24:59.553Z,23.60
2023-04-13T18:30:05.929Z,18.48
2023-04-13T18:35:26.440Z,19.40
2023-04-13T18:40:44.476Z,17.00
2023-04-13T18:46:02.092Z,16.42
2023-04-13T18:51:05.498Z,17.65
2023-04-13T18:56:23.855Z,13.57
2023-04-13T19:02:15.798Z,12.70
2023-04-13T19:07:39.804Z,18.00
2023-04-13T19:13:32.474Z,14.27
2023-04-13T19:19:02.438Z,11.07
2023-04-13T19:42:42.832Z,7.22
2023-04-13T19:48:43.780Z,7.65
2023-04-13T19:53:53.950Z,11.93
2023-04-13T19:59:22.394Z,8.10
2023-04-13T20:10:18.569Z,5.60
2023-04-13T20:15:41.432Z,6.32
2023-04-13T20:50:50.912Z,5.88
2023-04-13T20:56:08.705Z,4.80
2023-04-13T21:07:30.192Z,4.65
2023-04-13T21:12:52.588Z,4.65
2023-04-13T21:18:34.952Z,4.78
2023-04-13T21:24:00.355Z,3.90
2023-04-13T21:29:52.181Z,5.88
2023-04-13T21:40:56.026Z,6.38
2023-04-13T21:46:28.886Z,4.13
2023-04-13T21:56:56.490Z,4.28
2023-04-13T22:02:22.248Z,4.78
2023-04-13T22:07:47.143Z,3.45
2023-04-13T22:13:34.759Z,2.97
2023-04-13T22:18:49.515Z,4.47
2023-04-13T22:23:57.546Z,4.68
2023-04-13T22:29:13.653Z,8.05
2023-04-13T22:34:24.593Z,4.18
2023-04-13T22:39:48.175Z,3.90
2023-04-13T22:45:01.678Z,5.43
2023-04-13T22:50:30.970Z,3.97
2023-04-13T22:55:50.155Z,3.28
2023-04-13T23:00:58.618Z,3.95
2023-04-13T23:06:07.028Z,4.50
2023-04-13T23:23:20.322Z,2.67
2023-04-13T23:34:12.145Z,3.50
2023-04-13T23:39:41.923Z,4.40
2023-04-13T23:44:47.969Z,4.03
2023-04-13T23:49:55.679Z,3.63
